Кускургуль

СКИДКИ НА СМАРТФОНЫ!

Карта отелей и гостиниц, располагающихся рядом с аэропортом Кускургуль :

Кускургуль Тюменская область 58° 4' 58.1988" N, 66° 34' 3.9" E
Код аэродрома ИКАО
HAF4
Код аэродрома RU
ХАФ4
Координаты
N58.08283° E066.56775°
Превышение над уровнем моря
55
Основная полоса
05/23
Курс магнитный
052,8/232,8
Длина основной ВПП
562
Ширина основной ВПП
75
Покрытие основной ВПП
Нетвёрдое (грунт)
Освещение ВПП
Нет
Тип: 
Аэродром
Класс аэродрома: 
Принадлежность: 
ГА
Статус: 
Действующий
Сайт: 
E-mail аэродрома: 
Страна: 
Россия
Регион: 
Тюменская область
Город: 
Дополнительная информация: 
Оператор: нет данных

Скидки на навигаторы!

Найти трансфер

С помощью этой формы Вы можете найти трансфер из аэропорта Кускургуль в город, аэропорт или вокзал:

Погода в аэропортах:

Авиационная погода в Братске

Регион: 
Погода METAR: 
UIBB 190400Z 25006MPS 220V290 9000 -SHRA BKN006 OVC019CB 09/09 Q1005 R30/290150 NOSIG RMK QBB190 MT OBSC QFE711/0948
Время наблюдения
2022-08-19T04:00:00Z
Температура C
9.0
Точка росы
9.0
Направление ветра
250
Скорость ветра (узлы)
12
Метео видимость
5.59
Облачность
BKN
OVC
Нижняя граница облачности (футы)
600
1900
Явления погоды
-SHRA
Условия полета
IFR
Аэропорт подробнее: 
BKN – значительная (рассеянная, разорванная) облачность; OVC – сплошная облачность;
-SHRA - слабый ливневой дождь;

Авиационная погода в Волгограде

Регион: 
Погода METAR: 
URWW 190400Z 01003MPS 9999 -SHRA SCT070CB 21/18 Q1012 R24/010070 TEMPO 1000 SHRA BKN003 BKN040CB
Время наблюдения
2022-08-19T04:00:00Z
Температура C
21.0
Точка росы
18.0
Направление ветра
10
Скорость ветра (узлы)
6
Метео видимость
6.21
Облачность
SCT
Нижняя граница облачности (футы)
7000
Явления погоды
-SHRA
Условия полета
VFR
Аэропорт подробнее: 
SCT – разбросанная отдельная облачность;
-SHRA - слабый ливневой дождь;

Авиационная погода в Сочи

Регион: 
Погода METAR: 
URSS 190400Z 03002MPS 350V060 9999 VCTS -SHRA SCT016 OVC050CB 22/20 Q1008 R06/290060 R02/290060 NOSIG RMK R02/04003MPS MT OBSC QFE755
Время наблюдения
2022-08-19T04:00:00Z
Температура C
22.0
Точка росы
20.0
Направление ветра
30
Скорость ветра (узлы)
4
Метео видимость
6.21
Облачность
SCT
OVC
Нижняя граница облачности (футы)
1600
5000
Явления погоды
VCTS -SHRA
Условия полета
VFR
Аэропорт подробнее: 
SCT – разбросанная отдельная облачность; OVC – сплошная облачность;
-SHRA - слабый ливневой дождь;

Авиационная погода в Калуге (Грабцево)

Регион: 
Погода METAR: 
UUBC 190400Z 02004MPS 330V060 9000 -SHRA SCT066CB 16/15 Q1021 R31/290050 NOSIG RMK QFE749/0998
Время наблюдения
2022-08-19T04:00:00Z
Температура C
16.0
Точка росы
15.0
Направление ветра
20
Скорость ветра (узлы)
8
Метео видимость
5.59
Облачность
SCT
Нижняя граница облачности (футы)
6600
Явления погоды
-SHRA
Условия полета
VFR
SCT – разбросанная отдельная облачность;
-SHRA - слабый ливневой дождь;